Time;durP1;ratioP1;P1;durP2;ratioP2;P2;SDS_P1;SDS_P2;PMS_P1;PMS_P2;Temp;Humidity;BMP_temperature;BMP_pressure;BME280_temperature;BME280_humidity;BME280_pressure;Samples;Min_cycle;Max_cycle;Signal;HPM_P1;HPM_P2
2022/01/22 00:08:13;;;;;;;6.60;4.00;;;;;;;20.16;nan;100792.41;20377081;28;100302;-67
2022/01/22 00:18:14;;;;;;;7.65;4.00;;;;;;;20.12;nan;100783.03;20370613;28;98800;-67
2022/01/22 00:28:14;;;;;;;7.32;3.80;;;;;;;20.10;nan;100788.41;20375067;28;103573;-67
2022/01/22 00:38:16;;;;;;;8.13;3.75;;;;;;;20.06;nan;100763.25;20366104;28;101739;-67
2022/01/22 00:48:18;;;;;;;5.47;2.90;;;;;;;20.04;nan;100754.63;20376633;28;101000;-67
2022/01/22 00:58:18;;;;;;;5.32;3.05;;;;;;;20.03;nan;100758.22;20373438;28;97586;-67
2022/01/22 01:08:20;;;;;;;4.15;2.78;;;;;;;20.02;nan;100721.50;20363282;28;101362;-66
2022/01/22 01:39:04;;;;;;;4.80;2.60;;;;;;;19.99;nan;100648.94;20376197;28;103353;-66
2022/01/22 01:49:05;;;;;;;3.60;2.30;;;;;;;19.98;nan;100628.88;20382145;28;101423;-67
2022/01/22 01:59:05;;;;;;;5.38;2.47;;;;;;;19.99;nan;100605.13;20381947;28;98684;-66
2022/01/22 02:09:09;;;;;;;3.42;2.10;;;;;;;19.98;nan;100590.28;20377118;28;101619;-67
2022/01/22 02:29:44;;;;;;;2.63;1.80;;;;;;;19.96;nan;100562.44;20376875;28;100544;-67
2022/01/22 02:40:00;;;;;;;2.43;1.70;;;;;;;19.96;nan;100541.41;20376499;28;102726;-67
2022/01/22 02:50:01;;;;;;;2.65;1.80;;;;;;;19.95;nan;100543.19;20379706;28;101648;-66
2022/01/22 03:00:10;;;;;;;2.22;1.60;;;;;;;19.96;nan;100547.50;20376843;28;104164;-67
2022/01/22 03:10:16;;;;;;;1.73;1.35;;;;;;;19.95;nan;100511.66;20369890;28;102898;-67
2022/01/22 03:20:40;;;;;;;3.10;1.60;;;;;;;19.94;nan;100530.97;20375036;28;106946;-67
2022/01/22 03:30:40;;;;;;;2.78;1.38;;;;;;;19.94;nan;100503.88;20373955;28;101419;-66
2022/01/22 03:40:41;;;;;;;1.90;1.40;;;;;;;19.92;nan;100475.09;20369754;28;101365;-66
2022/01/22 03:50:41;;;;;;;2.35;1.48;;;;;;;19.92;nan;100476.84;20369300;28;102716;-64
2022/01/22 04:00:42;;;;;;;2.63;1.48;;;;;;;19.92;nan;100451.44;20367083;28;102695;-66
2022/01/22 04:10:43;;;;;;;2.08;1.27;;;;;;;19.93;nan;100447.00;20367938;28;100723;-66
2022/01/22 04:31:03;;;;;;;1.85;1.30;;;;;;;19.94;nan;100440.81;20369685;28;98955;-67
2022/01/22 04:41:05;;;;;;;1.33;1.15;;;;;;;19.93;nan;100433.88;20363039;28;101808;-67
2022/01/22 05:01:29;;;;;;;2.13;1.10;;;;;;;19.92;nan;100417.28;20333016;28;102241;-67
2022/01/22 05:11:30;;;;;;;6.00;1.10;;;;;;;19.96;nan;100412.63;20336877;28;102530;-66
2022/01/22 05:21:33;;;;;;;3.97;1.13;;;;;;;20.03;nan;100420.91;20386173;28;101319;-67
2022/01/22 05:32:19;;;;;;;1.33;0.90;;;;;;;20.14;nan;100424.44;20385763;28;99645;-67
2022/01/22 05:41:56;;;;;;;1.48;0.90;;;;;;;20.22;nan;100418.63;20415161;28;100419;-67
2022/01/22 05:51:59;;;;;;;2.63;1.03;;;;;;;20.29;nan;100413.75;20416279;28;102836;-66
2022/01/22 06:02:00;;;;;;;1.42;1.08;;;;;;;20.37;nan;100405.31;20418728;28;101001;-67
2022/01/22 06:22:07;;;;;;;2.25;1.20;;;;;;;20.51;nan;100430.56;20388503;28;102052;-66
2022/01/22 06:32:07;;;;;;;4.05;0.90;;;;;;;20.60;nan;100435.16;20330799;28;101214;-69
2022/01/22 06:42:08;;;;;;;1.00;0.80;;;;;;;20.67;nan;100454.81;20376855;28;107167;-67
2022/01/22 06:52:10;;;;;;;10.05;1.20;;;;;;;20.59;nan;100459.78;20406574;28;102852;-69
2022/01/22 07:02:10;;;;;;;21.70;11.40;;;;;;;20.79;nan;100471.50;20384842;28;100757;-69
2022/01/22 07:12:12;;;;;;;17.58;9.60;;;;;;;20.90;nan;100476.81;20393298;28;102702;-68
2022/01/22 07:32:36;;;;;;;10.65;7.07;;;;;;;21.05;nan;100473.97;20374062;28;104170;-69
2022/01/22 07:42:37;;;;;;;18.95;7.03;;;;;;;21.06;nan;100486.19;20376005;28;99792;-67
2022/01/22 07:52:39;;;;;;;8.57;3.75;;;;;;;20.84;nan;100484.34;20362899;28;99676;-65
2022/01/22 08:02:39;;;;;;;19.85;4.65;;;;;;;20.62;nan;100483.25;20349839;28;101756;-64
2022/01/22 08:12:42;;;;;;;8.70;3.15;;;;;;;20.53;nan;100492.66;20358664;28;100458;-64
2022/01/22 08:22:43;;;;;;;9.60;3.15;;;;;;;20.72;nan;100497.44;20371439;28;99262;-64
2022/01/22 08:32:59;;;;;;;6.78;3.40;;;;;;;20.82;nan;100497.59;20360404;28;102430;-64
2022/01/22 08:42:59;;;;;;;10.23;3.50;;;;;;;20.95;nan;100519.41;20371236;28;97382;-64
2022/01/22 08:53:00;;;;;;;11.43;3.20;;;;;;;21.04;nan;100541.56;20377936;28;100722;-64
2022/01/22 09:03:01;;;;;;;21.17;4.88;;;;;;;21.15;nan;100553.94;20377429;28;100632;-65
2022/01/22 09:13:02;;;;;;;24.67;6.88;;;;;;;21.23;nan;100572.66;20381274;28;101067;-65
2022/01/22 09:23:07;;;;;;;15.45;6.15;;;;;;;21.34;nan;100585.03;20369292;28;97795;-65
2022/01/22 09:33:08;;;;;;;11.48;5.68;;;;;;;21.16;nan;100584.59;20389295;28;101261;-64
2022/01/22 09:43:12;;;;;;;9.38;5.10;;;;;;;21.29;nan;100592.44;20409081;28;99883;-65
2022/01/22 09:53:12;;;;;;;9.07;5.53;;;;;;;21.48;nan;100594.50;20402639;28;101427;-64
2022/01/22 10:03:17;;;;;;;19.25;7.50;;;;;;;21.65;nan;100589.81;20403398;28;98286;-65
2022/01/22 10:13:59;;;;;;;32.63;24.75;;;;;;;21.81;nan;100613.19;20399613;28;99157;-65
2022/01/22 10:24:22;;;;;;;216.00;153.50;;;;;;;21.96;nan;100609.38;20398480;28;99199;-65
2022/01/22 10:34:30;;;;;;;186.23;133.05;;;;;;;22.07;nan;100613.81;20419606;28;101738;-66
2022/01/22 10:44:47;;;;;;;156.02;117.20;;;;;;;22.10;nan;100621.47;20395096;28;98827;-66
2022/01/22 10:55:00;;;;;;;149.13;106.05;;;;;;;22.20;nan;100626.88;20402898;28;98039;-65
2022/01/22 11:05:02;;;;;;;126.50;92.18;;;;;;;22.24;nan;100625.69;20389714;28;100273;-66
2022/01/22 11:15:03;;;;;;;111.07;78.43;;;;;;;22.29;nan;100638.50;20382878;28;97661;-65
2022/01/22 11:25:07;;;;;;;104.27;73.23;;;;;;;22.41;nan;100653.44;20400555;28;97908;-63
2022/01/22 11:35:09;;;;;;;97.35;69.03;;;;;;;22.51;nan;100659.66;20406548;28;101779;-65
2022/01/22 11:45:36;;;;;;;97.60;68.13;;;;;;;22.61;nan;100659.75;20390115;28;100582;-65
2022/01/22 11:55:37;;;;;;;101.07;67.90;;;;;;;22.74;nan;100669.34;20396103;28;98580;-65
2022/01/22 12:05:53;;;;;;;101.78;67.30;;;;;;;22.87;nan;100683.25;20383415;28;106000;-65
2022/01/22 12:15:54;;;;;;;84.85;58.85;;;;;;;22.95;nan;100699.31;20365008;28;100141;-65
2022/01/22 12:25:56;;;;;;;76.82;52.55;;;;;;;23.02;nan;100695.22;20386102;28;103545;-65
2022/01/22 12:35:59;;;;;;;71.00;50.60;;;;;;;23.09;nan;100684.97;20360429;28;97989;-66
2022/01/22 12:46:04;;;;;;;46.38;32.30;;;;;;;22.63;nan;100697.44;20371257;28;101492;-66
2022/01/22 13:06:08;;;;;;;42.42;30.50;;;;;;;22.99;nan;100727.16;20391185;28;98763;-66
2022/01/22 13:16:13;;;;;;;37.10;27.02;;;;;;;23.06;nan;100719.59;20390785;28;101701;-66
2022/01/22 13:26:14;;;;;;;40.50;25.20;;;;;;;23.10;nan;100743.94;20384903;28;99211;-66
2022/01/22 13:36:37;;;;;;;34.13;24.00;;;;;;;23.10;nan;100786.22;20407619;28;99800;-66
2022/01/22 13:57:14;;;;;;;28.10;20.73;;;;;;;22.94;nan;100790.06;20411999;28;103941;-66
2022/01/22 14:07:17;;;;;;;27.60;20.67;;;;;;;22.83;nan;100796.16;20419250;28;99645;-67
2022/01/22 14:17:20;;;;;;;28.27;19.38;;;;;;;22.69;nan;100817.53;20413672;28;98726;-67
2022/01/22 14:27:21;;;;;;;;;;;;;;;22.59;nan;100872.81;20412571;28;100042;-66
2022/01/22 14:37:30;;;;;;;28.63;19.45;;;;;;;22.56;nan;100891.53;20416685;28;102167;-67
2022/01/22 14:47:31;;;;;;;28.42;17.88;;;;;;;22.49;nan;100900.88;20399827;28;102569;-67
2022/01/22 14:57:35;;;;;;;21.50;15.13;;;;;;;22.37;nan;100918.41;20407869;28;99177;-66
2022/01/22 15:07:36;;;;;;;19.58;13.93;;;;;;;22.20;nan;100954.81;20406853;28;99063;-66
2022/01/22 15:27:53;;;;;;;22.17;13.38;;;;;;;21.99;nan;100983.56;20421360;28;98761;-66
2022/01/22 15:37:59;;;;;;;19.00;12.48;;;;;;;21.93;nan;101005.09;20421623;28;98626;-67
2022/01/22 15:48:00;;;;;;;17.27;12.00;;;;;;;21.86;nan;101022.28;20410503;28;102150;-67
2022/01/22 15:58:00;;;;;;;16.73;10.18;;;;;;;21.80;nan;101047.31;20407273;28;98220;-66
2022/01/22 16:08:03;;;;;;;14.20;9.85;;;;;;;21.80;nan;101070.19;20403911;28;105368;-68
2022/01/22 16:18:03;;;;;;;20.13;9.90;;;;;;;21.76;nan;101101.19;20405522;28;99483;-66
2022/01/22 16:28:06;;;;;;;29.35;11.23;;;;;;;21.78;nan;101112.47;20382580;28;97867;-68
2022/01/22 16:38:07;;;;;;;44.10;14.50;;;;;;;21.82;nan;101135.03;20390395;28;98822;-69
2022/01/22 16:58:34;;;;;;;35.80;13.82;;;;;;;21.48;nan;101165.41;20416028;28;99139;-69
2022/01/22 17:08:38;;;;;;;42.38;14.38;;;;;;;21.43;nan;101192.94;20421235;28;101541;-69
2022/01/22 17:18:38;;;;;;;37.90;13.38;;;;;;;21.39;nan;101206.41;20429151;28;100654;-69
2022/01/22 17:28:39;;;;;;;32.70;11.07;;;;;;;21.34;nan;101213.75;20422570;28;98785;-69
2022/01/22 17:38:40;;;;;;;32.30;11.27;;;;;;;21.31;nan;101238.50;20419179;28;97549;-69
2022/01/22 17:48:41;;;;;;;26.67;10.32;;;;;;;21.30;nan;101238.59;20420586;28;101192;-69
2022/01/22 17:58:42;;;;;;;24.30;9.48;;;;;;;21.26;nan;101244.09;20416287;28;98796;-69
2022/01/22 18:08:42;;;;;;;19.27;8.98;;;;;;;21.23;nan;101264.50;20417015;28;100718;-68
2022/01/22 18:18:43;;;;;;;19.15;8.43;;;;;;;21.20;nan;101281.34;20417889;28;97864;-67
2022/01/22 18:28:44;;;;;;;19.23;7.97;;;;;;;21.18;nan;101298.16;20421921;28;98475;-67
2022/01/22 18:38:46;;;;;;;14.82;7.68;;;;;;;21.15;nan;101293.94;20416238;28;100862;-68
2022/01/22 18:48:49;;;;;;;13.95;6.93;;;;;;;21.13;nan;101300.25;20405146;28;99990;-68
2022/01/22 18:58:51;;;;;;;17.60;6.85;;;;;;;21.10;nan;101296.88;20410794;28;102235;-68
2022/01/22 19:08:53;;;;;;;14.23;6.22;;;;;;;21.10;nan;101303.91;20408207;28;99125;-67
2022/01/22 19:18:54;;;;;;;12.65;5.65;;;;;;;21.05;nan;101321.81;20410091;28;99391;-67
2022/01/22 19:28:54;;;;;;;11.95;5.65;;;;;;;21.02;nan;101325.47;20411578;28;97733;-68
2022/01/22 19:38:57;;;;;;;12.43;5.57;;;;;;;21.01;nan;101341.38;20408229;28;101059;-67
2022/01/22 19:48:58;;;;;;;9.07;5.17;;;;;;;20.99;nan;101327.44;20410560;28;99039;-68
2022/01/22 19:58:59;;;;;;;8.85;4.85;;;;;;;20.99;nan;101330.09;20405649;28;97811;-68
2022/01/22 20:09:04;;;;;;;9.23;4.63;;;;;;;20.99;nan;101344.09;20406542;28;100337;-68
2022/01/22 20:19:04;;;;;;;8.95;4.50;;;;;;;20.99;nan;101348.53;20410128;28;99702;-68
2022/01/22 20:29:08;;;;;;;8.07;4.40;;;;;;;20.94;nan;101354.06;20405986;28;99197;-68
2022/01/22 20:39:09;;;;;;;6.13;3.42;;;;;;;20.89;nan;101341.16;20431242;28;98189;-67
2022/01/22 20:49:13;;;;;;;7.00;3.50;;;;;;;20.83;nan;101328.38;20431360;28;98009;-67
2022/01/22 20:59:13;;;;;;;14.90;3.72;;;;;;;20.78;nan;101339.19;20412712;28;101522;-64
2022/01/22 21:09:14;;;;;;;11.93;3.80;;;;;;;20.84;nan;101332.72;20397143;28;101587;-67
2022/01/22 21:19:22;;;;;;;8.20;4.60;;;;;;;20.75;nan;101343.78;20422460;28;100227;-67
2022/01/22 21:29:27;;;;;;;9.45;4.75;;;;;;;20.69;nan;101346.75;20436267;28;98294;-68
2022/01/22 21:39:45;;;;;;;12.20;4.55;;;;;;;20.60;nan;101358.69;20417254;28;101799;-68
2022/01/22 21:49:46;;;;;;;11.63;4.57;;;;;;;20.53;nan;101339.81;20409290;28;98928;-67
2022/01/22 21:59:47;;;;;;;10.80;5.13;;;;;;;20.49;nan;101333.00;20419786;28;101977;-68
2022/01/22 22:09:47;;;;;;;9.13;4.90;;;;;;;20.45;nan;101332.34;20417783;28;101028;-68
2022/01/22 22:19:49;;;;;;;10.15;4.63;;;;;;;20.45;nan;101352.56;20412529;28;99377;-68
2022/01/22 22:29:52;;;;;;;7.60;4.50;;;;;;;20.42;nan;101344.84;20397941;28;101914;-68
2022/01/22 22:39:53;;;;;;;;;;;;;;;20.36;nan;101339.94;20392436;28;102375;-67
2022/01/22 22:49:53;;;;;;;7.38;3.70;;;;;;;20.35;nan;101348.75;20381844;28;99352;-68
2022/01/22 22:59:54;;;;;;;8.13;3.90;;;;;;;20.28;nan;101335.97;20391464;28;98739;-67
2022/01/22 23:09:59;;;;;;;7.10;3.58;;;;;;;20.26;nan;101326.47;20398101;28;101132;-68
2022/01/22 23:30:20;;;;;;;7.57;3.30;;;;;;;20.19;nan;101340.91;20392231;28;100711;-68
